sensor_id;sensor_type;location;lat;lon;timestamp;P1;durP1;ratioP1;P2;durP2;ratioP2
72785;SDS011;60902;53.876;10.674;2022-10-18T00:00:04;4.53;;;2.08;;
72785;SDS011;60902;53.876;10.674;2022-10-18T00:00:16;4.80;;;2.40;;
72785;SDS011;60902;53.876;10.674;2022-10-18T00:00:28;4.70;;;2.40;;
72785;SDS011;60902;53.876;10.674;2022-10-18T00:00:39;4.80;;;2.22;;
72785;SDS011;60902;53.876;10.674;2022-10-18T00:00:50;4.80;;;2.30;;
72785;SDS011;60902;53.876;10.674;2022-10-18T00:01:02;5.07;;;2.60;;
72785;SDS011;60902;53.876;10.674;2022-10-18T00:01:14;5.00;;;2.63;;
72785;SDS011;60902;53.876;10.674;2022-10-18T00:01:27;5.00;;;2.40;;
72785;SDS011;60902;53.876;10.674;2022-10-18T00:01:38;4.68;;;2.20;;
72785;SDS011;60902;53.876;10.674;2022-10-18T00:01:49;4.45;;;2.10;;
72785;SDS011;60902;53.876;10.674;2022-10-18T00:02:02;4.38;;;2.03;;
72785;SDS011;60902;53.876;10.674;2022-10-18T00:02:13;4.75;;;2.15;;
72785;SDS011;60902;53.876;10.674;2022-10-18T00:02:25;5.13;;;2.28;;
72785;SDS011;60902;53.876;10.674;2022-10-18T00:02:36;4.90;;;2.20;;
72785;SDS011;60902;53.876;10.674;2022-10-18T00:02:47;4.82;;;2.20;;
72785;SDS011;60902;53.876;10.674;2022-10-18T00:02:58;5.07;;;2.20;;
72785;SDS011;60902;53.876;10.674;2022-10-18T00:03:09;5.80;;;2.20;;
72785;SDS011;60902;53.876;10.674;2022-10-18T00:03:20;5.93;;;2.17;;
72785;SDS011;60902;53.876;10.674;2022-10-18T00:03:33;5.63;;;2.30;;
72785;SDS011;60902;53.876;10.674;2022-10-18T00:03:44;4.82;;;2.30;;
72785;SDS011;60902;53.876;10.674;2022-10-18T00:03:55;4.57;;;2.13;;
72785;SDS011;60902;53.876;10.674;2022-10-18T00:04:06;4.43;;;2.10;;
72785;SDS011;60902;53.876;10.674;2022-10-18T00:04:16;4.47;;;2.30;;
72785;SDS011;60902;53.876;10.674;2022-10-18T00:04:27;4.53;;;2.38;;
72785;SDS011;60902;53.876;10.674;2022-10-18T00:04:38;4.70;;;2.47;;
72785;SDS011;60902;53.876;10.674;2022-10-18T00:04:49;4.70;;;2.50;;
72785;SDS011;60902;53.876;10.674;2022-10-18T00:05:00;4.88;;;2.35;;
72785;SDS011;60902;53.876;10.674;2022-10-18T00:05:12;5.43;;;2.50;;
72785;SDS011;60902;53.876;10.674;2022-10-18T00:05:24;5.90;;;2.47;;
72785;SDS011;60902;53.876;10.674;2022-10-18T00:05:35;5.32;;;2.22;;
72785;SDS011;60902;53.876;10.674;2022-10-18T00:05:46;5.10;;;2.08;;
72785;SDS011;60902;53.876;10.674;2022-10-18T00:05:58;4.75;;;2.17;;
72785;SDS011;60902;53.876;10.674;2022-10-18T00:06:10;4.75;;;2.28;;
72785;SDS011;60902;53.876;10.674;2022-10-18T00:06:21;4.70;;;2.17;;
72785;SDS011;60902;53.876;10.674;2022-10-18T00:06:32;5.05;;;2.20;;
72785;SDS011;60902;53.876;10.674;2022-10-18T00:06:44;5.18;;;2.20;;
72785;SDS011;60902;53.876;10.674;2022-10-18T00:06:55;5.25;;;2.22;;
72785;SDS011;60902;53.876;10.674;2022-10-18T00:07:06;5.13;;;2.50;;
72785;SDS011;60902;53.876;10.674;2022-10-18T00:07:17;5.30;;;2.65;;
72785;SDS011;60902;53.876;10.674;2022-10-18T00:07:28;5.68;;;3.00;;
72785;SDS011;60902;53.876;10.674;2022-10-18T00:07:39;5.60;;;2.95;;
72785;SDS011;60902;53.876;10.674;2022-10-18T00:07:50;5.43;;;2.70;;
72785;SDS011;60902;53.876;10.674;2022-10-18T00:08:01;5.20;;;2.20;;
72785;SDS011;60902;53.876;10.674;2022-10-18T00:08:11;5.30;;;2.25;;
72785;SDS011;60902;53.876;10.674;2022-10-18T00:08:24;4.97;;;2.30;;
72785;SDS011;60902;53.876;10.674;2022-10-18T00:08:35;5.03;;;2.42;;
72785;SDS011;60902;53.876;10.674;2022-10-18T00:08:46;4.90;;;2.47;;
72785;SDS011;60902;53.876;10.674;2022-10-18T00:08:58;5.18;;;2.60;;
72785;SDS011;60902;53.876;10.674;2022-10-18T00:09:09;5.65;;;2.70;;
72785;SDS011;60902;53.876;10.674;2022-10-18T00:09:20;5.43;;;2.60;;
72785;SDS011;60902;53.876;10.674;2022-10-18T00:09:31;5.38;;;2.50;;
72785;SDS011;60902;53.876;10.674;2022-10-18T00:09:43;4.72;;;2.40;;
72785;SDS011;60902;53.876;10.674;2022-10-18T00:09:54;5.40;;;2.50;;
72785;SDS011;60902;53.876;10.674;2022-10-18T00:10:06;5.30;;;2.55;;
72785;SDS011;60902;53.876;10.674;2022-10-18T00:10:18;5.30;;;2.67;;
72785;SDS011;60902;53.876;10.674;2022-10-18T00:10:29;4.75;;;2.53;;
72785;SDS011;60902;53.876;10.674;2022-10-18T00:10:40;4.82;;;2.60;;
72785;SDS011;60902;53.876;10.674;2022-10-18T00:10:51;4.75;;;2.50;;
72785;SDS011;60902;53.876;10.674;2022-10-18T00:11:03;5.40;;;2.50;;
72785;SDS011;60902;53.876;10.674;2022-10-18T00:11:15;5.70;;;2.78;;
72785;SDS011;60902;53.876;10.674;2022-10-18T00:11:26;5.97;;;2.83;;
72785;SDS011;60902;53.876;10.674;2022-10-18T00:11:37;5.43;;;2.83;;
72785;SDS011;60902;53.876;10.674;2022-10-18T00:11:49;4.82;;;2.60;;
72785;SDS011;60902;53.876;10.674;2022-10-18T00:12:00;4.90;;;2.35;;
72785;SDS011;60902;53.876;10.674;2022-10-18T00:12:11;4.97;;;2.45;;
72785;SDS011;60902;53.876;10.674;2022-10-18T00:12:22;5.05;;;2.40;;
72785;SDS011;60902;53.876;10.674;2022-10-18T00:12:33;4.80;;;2.42;;
72785;SDS011;60902;53.876;10.674;2022-10-18T00:12:46;4.80;;;2.20;;
72785;SDS011;60902;53.876;10.674;2022-10-18T00:12:57;4.80;;;2.10;;
72785;SDS011;60902;53.876;10.674;2022-10-18T00:13:08;4.63;;;2.20;;
72785;SDS011;60902;53.876;10.674;2022-10-18T00:13:19;4.70;;;2.30;;
72785;SDS011;60902;53.876;10.674;2022-10-18T00:13:31;4.43;;;2.20;;
72785;SDS011;60902;53.876;10.674;2022-10-18T00:13:42;4.30;;;2.30;;
72785;SDS011;60902;53.876;10.674;2022-10-18T00:13:54;4.78;;;2.50;;
72785;SDS011;60902;53.876;10.674;2022-10-18T00:14:07;4.95;;;2.55;;
72785;SDS011;60902;53.876;10.674;2022-10-18T00:14:19;4.97;;;2.40;;
72785;SDS011;60902;53.876;10.674;2022-10-18T00:14:30;4.95;;;2.50;;
72785;SDS011;60902;53.876;10.674;2022-10-18T00:14:41;4.97;;;2.60;;
72785;SDS011;60902;53.876;10.674;2022-10-18T00:14:52;5.22;;;2.80;;
72785;SDS011;60902;53.876;10.674;2022-10-18T00:15:03;5.32;;;2.70;;
72785;SDS011;60902;53.876;10.674;2022-10-18T00:15:16;5.40;;;2.55;;
72785;SDS011;60902;53.876;10.674;2022-10-18T00:15:28;5.00;;;2.55;;
72785;SDS011;60902;53.876;10.674;2022-10-18T00:15:39;4.68;;;2.35;;
72785;SDS011;60902;53.876;10.674;2022-10-18T00:15:58;4.70;;;2.35;;
72785;SDS011;60902;53.876;10.674;2022-10-18T00:16:11;4.80;;;2.45;;
72785;SDS011;60902;53.876;10.674;2022-10-18T00:16:28;4.53;;;2.22;;
72785;SDS011;60902;53.876;10.674;2022-10-18T00:16:39;4.55;;;2.13;;
72785;SDS011;60902;53.876;10.674;2022-10-18T00:16:50;4.85;;;2.30;;
72785;SDS011;60902;53.876;10.674;2022-10-18T00:17:02;4.95;;;2.38;;
72785;SDS011;60902;53.876;10.674;2022-10-18T00:17:13;4.68;;;2.53;;
72785;SDS011;60902;53.876;10.674;2022-10-18T00:17:25;4.90;;;2.60;;
72785;SDS011;60902;53.876;10.674;2022-10-18T00:17:36;4.75;;;2.70;;
72785;SDS011;60902;53.876;10.674;2022-10-18T00:17:48;4.57;;;2.50;;
72785;SDS011;60902;53.876;10.674;2022-10-18T00:17:59;4.60;;;2.40;;
72785;SDS011;60902;53.876;10.674;2022-10-18T00:18:10;4.50;;;2.15;;
72785;SDS011;60902;53.876;10.674;2022-10-18T00:18:21;4.75;;;2.13;;
72785;SDS011;60902;53.876;10.674;2022-10-18T00:18:34;4.88;;;2.40;;
72785;SDS011;60902;53.876;10.674;2022-10-18T00:18:45;4.90;;;2.47;;
72785;SDS011;60902;53.876;10.674;2022-10-18T00:18:57;5.07;;;2.53;;
72785;SDS011;60902;53.876;10.674;2022-10-18T00:19:08;5.32;;;2.60;;
72785;SDS011;60902;53.876;10.674;2022-10-18T00:19:19;5.38;;;2.58;;
72785;SDS011;60902;53.876;10.674;2022-10-18T00:19:30;4.70;;;2.33;;
72785;SDS011;60902;53.876;10.674;2022-10-18T00:19:41;4.97;;;2.50;;
72785;SDS011;60902;53.876;10.674;2022-10-18T00:19:53;5.30;;;2.40;;
72785;SDS011;60902;53.876;10.674;2022-10-18T00:20:04;5.57;;;2.33;;
72785;SDS011;60902;53.876;10.674;2022-10-18T00:20:16;5.75;;;2.53;;
72785;SDS011;60902;53.876;10.674;2022-10-18T00:20:27;8.23;;;2.87;;
72785;SDS011;60902;53.876;10.674;2022-10-18T00:20:38;8.45;;;2.85;;
72785;SDS011;60902;53.876;10.674;2022-10-18T00:20:56;8.05;;;2.67;;
72785;SDS011;60902;53.876;10.674;2022-10-18T00:21:09;5.32;;;2.53;;
72785;SDS011;60902;53.876;10.674;2022-10-18T00:21:22;5.07;;;2.42;;
72785;SDS011;60902;53.876;10.674;2022-10-18T00:21:34;4.85;;;2.30;;
72785;SDS011;60902;53.876;10.674;2022-10-18T00:21:45;5.07;;;2.40;;
72785;SDS011;60902;53.876;10.674;2022-10-18T00:22:00;5.35;;;2.50;;
72785;SDS011;60902;53.876;10.674;2022-10-18T00:22:11;5.10;;;2.70;;
72785;SDS011;60902;53.876;10.674;2022-10-18T00:22:22;5.28;;;2.72;;
72785;SDS011;60902;53.876;10.674;2022-10-18T00:22:34;5.28;;;2.72;;
72785;SDS011;60902;53.876;10.674;2022-10-18T00:22:46;5.07;;;2.55;;
72785;SDS011;60902;53.876;10.674;2022-10-18T00:22:58;4.78;;;2.47;;
72785;SDS011;60902;53.876;10.674;2022-10-18T00:23:09;4.93;;;2.55;;
72785;SDS011;60902;53.876;10.674;2022-10-18T00:23:20;5.28;;;2.80;;
72785;SDS011;60902;53.876;10.674;2022-10-18T00:23:31;5.60;;;2.97;;
72785;SDS011;60902;53.876;10.674;2022-10-18T00:23:43;5.38;;;2.88;;
72785;SDS011;60902;53.876;10.674;2022-10-18T00:23:55;5.38;;;2.67;;
72785;SDS011;60902;53.876;10.674;2022-10-18T00:24:06;5.25;;;2.53;;
72785;SDS011;60902;53.876;10.674;2022-10-18T00:24:19;5.20;;;2.38;;
72785;SDS011;60902;53.876;10.674;2022-10-18T00:24:30;5.70;;;2.47;;
72785;SDS011;60902;53.876;10.674;2022-10-18T00:24:41;6.40;;;2.72;;
72785;SDS011;60902;53.876;10.674;2022-10-18T00:24:52;6.38;;;2.90;;
72785;SDS011;60902;53.876;10.674;2022-10-18T00:25:05;6.30;;;3.10;;
72785;SDS011;60902;53.876;10.674;2022-10-18T00:25:17;5.78;;;2.92;;
72785;SDS011;60902;53.876;10.674;2022-10-18T00:25:29;5.95;;;2.67;;
72785;SDS011;60902;53.876;10.674;2022-10-18T00:25:41;5.70;;;2.50;;
72785;SDS011;60902;53.876;10.674;2022-10-18T00:26:00;5.60;;;2.45;;
72785;SDS011;60902;53.876;10.674;2022-10-18T00:26:13;5.40;;;2.75;;
72785;SDS011;60902;53.876;10.674;2022-10-18T00:26:26;5.22;;;2.75;;
72785;SDS011;60902;53.876;10.674;2022-10-18T00:26:39;5.47;;;2.70;;
72785;SDS011;60902;53.876;10.674;2022-10-18T00:26:49;5.10;;;2.40;;
72785;SDS011;60902;53.876;10.674;2022-10-18T00:27:00;4.85;;;2.30;;
72785;SDS011;60902;53.876;10.674;2022-10-18T00:27:11;4.97;;;2.45;;
72785;SDS011;60902;53.876;10.674;2022-10-18T00:27:23;5.03;;;2.60;;
72785;SDS011;60902;53.876;10.674;2022-10-18T00:27:34;4.82;;;2.53;;
72785;SDS011;60902;53.876;10.674;2022-10-18T00:27:46;4.97;;;2.42;;
72785;SDS011;60902;53.876;10.674;2022-10-18T00:27:56;5.10;;;2.45;;
72785;SDS011;60902;53.876;10.674;2022-10-18T00:28:07;5.47;;;2.65;;
72785;SDS011;60902;53.876;10.674;2022-10-18T00:28:18;5.28;;;2.60;;
72785;SDS011;60902;53.876;10.674;2022-10-18T00:28:29;5.20;;;2.70;;
72785;SDS011;60902;53.876;10.674;2022-10-18T00:28:41;4.95;;;2.53;;
72785;SDS011;60902;53.876;10.674;2022-10-18T00:28:54;5.60;;;2.60;;
72785;SDS011;60902;53.876;10.674;2022-10-18T00:29:09;5.82;;;2.67;;
72785;SDS011;60902;53.876;10.674;2022-10-18T00:29:24;5.15;;;2.70;;
72785;SDS011;60902;53.876;10.674;2022-10-18T00:29:35;5.35;;;2.72;;
72785;SDS011;60902;53.876;10.674;2022-10-18T00:29:46;5.55;;;2.70;;
72785;SDS011;60902;53.876;10.674;2022-10-18T00:30:01;5.78;;;2.63;;
72785;SDS011;60902;53.876;10.674;2022-10-18T00:30:12;5.40;;;2.70;;
72785;SDS011;60902;53.876;10.674;2022-10-18T00:30:23;5.30;;;2.75;;
72785;SDS011;60902;53.876;10.674;2022-10-18T00:30:34;4.43;;;2.55;;
72785;SDS011;60902;53.876;10.674;2022-10-18T00:30:46;4.63;;;2.50;;
72785;SDS011;60902;53.876;10.674;2022-10-18T00:31:04;4.72;;;2.47;;
72785;SDS011;60902;53.876;10.674;2022-10-18T00:31:20;4.88;;;2.50;;
72785;SDS011;60902;53.876;10.674;2022-10-18T00:31:35;4.70;;;2.40;;
72785;SDS011;60902;53.876;10.674;2022-10-18T00:31:47;4.40;;;2.35;;
72785;SDS011;60902;53.876;10.674;2022-10-18T00:31:58;4.40;;;2.33;;
72785;SDS011;60902;53.876;10.674;2022-10-18T00:32:10;4.43;;;2.47;;
72785;SDS011;60902;53.876;10.674;2022-10-18T00:32:22;4.95;;;2.50;;
72785;SDS011;60902;53.876;10.674;2022-10-18T00:32:34;5.82;;;2.65;;
72785;SDS011;60902;53.876;10.674;2022-10-18T00:32:46;6.57;;;2.80;;
72785;SDS011;60902;53.876;10.674;2022-10-18T00:32:57;5.93;;;2.72;;
72785;SDS011;60902;53.876;10.674;2022-10-18T00:33:08;5.33;;;2.70;;
72785;SDS011;60902;53.876;10.674;2022-10-18T00:33:19;5.43;;;2.65;;
72785;SDS011;60902;53.876;10.674;2022-10-18T00:33:30;5.32;;;2.67;;
72785;SDS011;60902;53.876;10.674;2022-10-18T00:33:41;5.15;;;2.70;;
72785;SDS011;60902;53.876;10.674;2022-10-18T00:33:56;5.20;;;2.70;;
72785;SDS011;60902;53.876;10.674;2022-10-18T00:34:09;5.23;;;2.77;;
72785;SDS011;60902;53.876;10.674;2022-10-18T00:34:21;4.93;;;2.72;;
72785;SDS011;60902;53.876;10.674;2022-10-18T00:34:33;4.90;;;2.72;;
72785;SDS011;60902;53.876;10.674;2022-10-18T00:34:43;5.10;;;2.80;;
72785;SDS011;60902;53.876;10.674;2022-10-18T00:34:54;5.25;;;2.65;;
72785;SDS011;60902;53.876;10.674;2022-10-18T00:35:05;5.47;;;2.77;;
72785;SDS011;60902;53.876;10.674;2022-10-18T00:35:17;5.60;;;2.80;;
72785;SDS011;60902;53.876;10.674;2022-10-18T00:35:28;5.53;;;2.75;;
72785;SDS011;60902;53.876;10.674;2022-10-18T00:35:40;5.35;;;2.60;;
72785;SDS011;60902;53.876;10.674;2022-10-18T00:35:52;5.20;;;2.70;;
72785;SDS011;60902;53.876;10.674;2022-10-18T00:36:03;5.10;;;2.67;;
72785;SDS011;60902;53.876;10.674;2022-10-18T00:36:15;5.43;;;2.80;;
72785;SDS011;60902;53.876;10.674;2022-10-18T00:36:27;5.32;;;2.70;;
72785;SDS011;60902;53.876;10.674;2022-10-18T00:36:41;5.20;;;2.85;;
72785;SDS011;60902;53.876;10.674;2022-10-18T00:36:53;5.03;;;2.70;;
72785;SDS011;60902;53.876;10.674;2022-10-18T00:37:05;5.13;;;2.72;;
72785;SDS011;60902;53.876;10.674;2022-10-18T00:37:17;5.30;;;2.70;;
72785;SDS011;60902;53.876;10.674;2022-10-18T00:37:28;5.45;;;2.75;;
72785;SDS011;60902;53.876;10.674;2022-10-18T00:37:39;5.20;;;2.65;;
72785;SDS011;60902;53.876;10.674;2022-10-18T00:37:50;5.18;;;2.70;;
72785;SDS011;60902;53.876;10.674;2022-10-18T00:38:01;5.50;;;2.67;;
72785;SDS011;60902;53.876;10.674;2022-10-18T00:38:12;6.05;;;2.83;;
72785;SDS011;60902;53.876;10.674;2022-10-18T00:38:24;5.75;;;2.60;;
72785;SDS011;60902;53.876;10.674;2022-10-18T00:38:35;5.10;;;2.42;;
72785;SDS011;60902;53.876;10.674;2022-10-18T00:38:48;4.90;;;2.60;;
72785;SDS011;60902;53.876;10.674;2022-10-18T00:39:00;5.15;;;2.70;;
72785;SDS011;60902;53.876;10.674;2022-10-18T00:39:13;5.32;;;2.65;;
72785;SDS011;60902;53.876;10.674;2022-10-18T00:39:26;5.53;;;2.70;;
72785;SDS011;60902;53.876;10.674;2022-10-18T00:39:36;5.43;;;2.85;;
72785;SDS011;60902;53.876;10.674;2022-10-18T00:39:48;5.95;;;2.90;;
72785;SDS011;60902;53.876;10.674;2022-10-18T00:39:59;5.88;;;2.92;;
72785;SDS011;60902;53.876;10.674;2022-10-18T00:40:11;5.70;;;2.83;;
72785;SDS011;60902;53.876;10.674;2022-10-18T00:40:22;5.73;;;2.80;;
72785;SDS011;60902;53.876;10.674;2022-10-18T00:40:33;5.82;;;2.70;;
72785;SDS011;60902;53.876;10.674;2022-10-18T00:40:44;6.00;;;2.70;;
72785;SDS011;60902;53.876;10.674;2022-10-18T00:40:55;5.57;;;2.83;;
72785;SDS011;60902;53.876;10.674;2022-10-18T00:41:07;5.70;;;2.90;;
72785;SDS011;60902;53.876;10.674;2022-10-18T00:41:19;5.55;;;2.80;;
72785;SDS011;60902;53.876;10.674;2022-10-18T00:41:33;5.32;;;2.58;;
72785;SDS011;60902;53.876;10.674;2022-10-18T00:41:47;5.10;;;2.85;;
72785;SDS011;60902;53.876;10.674;2022-10-18T00:41:58;4.97;;;2.92;;
72785;SDS011;60902;53.876;10.674;2022-10-18T00:42:10;5.38;;;3.03;;
72785;SDS011;60902;53.876;10.674;2022-10-18T00:42:26;5.20;;;2.75;;
72785;SDS011;60902;53.876;10.674;2022-10-18T00:42:39;4.80;;;2.50;;
72785;SDS011;60902;53.876;10.674;2022-10-18T00:42:50;4.97;;;2.60;;
72785;SDS011;60902;53.876;10.674;2022-10-18T00:43:01;4.80;;;2.60;;
72785;SDS011;60902;53.876;10.674;2022-10-18T00:43:13;4.95;;;2.63;;
72785;SDS011;60902;53.876;10.674;2022-10-18T00:43:27;5.53;;;2.65;;
72785;SDS011;60902;53.876;10.674;2022-10-18T00:43:52;5.70;;;2.90;;
72785;SDS011;60902;53.876;10.674;2022-10-18T00:44:06;5.13;;;3.00;;
72785;SDS011;60902;53.876;10.674;2022-10-18T00:45:16;5.20;;;2.83;;
72785;SDS011;60902;53.876;10.674;2022-10-18T00:45:29;5.43;;;2.70;;
72785;SDS011;60902;53.876;10.674;2022-10-18T00:45:40;5.32;;;2.60;;
72785;SDS011;60902;53.876;10.674;2022-10-18T00:45:51;5.25;;;2.70;;
72785;SDS011;60902;53.876;10.674;2022-10-18T00:46:02;5.10;;;2.95;;
72785;SDS011;60902;53.876;10.674;2022-10-18T00:46:13;5.10;;;3.00;;
72785;SDS011;60902;53.876;10.674;2022-10-18T00:46:25;4.90;;;2.83;;
72785;SDS011;60902;53.876;10.674;2022-10-18T00:46:39;5.05;;;2.80;;
72785;SDS011;60902;53.876;10.674;2022-10-18T00:46:55;6.10;;;3.25;;
72785;SDS011;60902;53.876;10.674;2022-10-18T00:47:08;6.20;;;3.17;;
72785;SDS011;60902;53.876;10.674;2022-10-18T00:47:22;5.00;;;2.60;;
72785;SDS011;60902;53.876;10.674;2022-10-18T00:47:32;4.70;;;2.70;;
72785;SDS011;60902;53.876;10.674;2022-10-18T00:47:45;5.13;;;2.90;;
72785;SDS011;60902;53.876;10.674;2022-10-18T00:48:01;5.40;;;2.63;;
72785;SDS011;60902;53.876;10.674;2022-10-18T00:48:15;5.18;;;2.47;;
72785;SDS011;60902;53.876;10.674;2022-10-18T00:48:27;5.78;;;2.75;;
72785;SDS011;60902;53.876;10.674;2022-10-18T00:48:38;5.70;;;2.95;;
72785;SDS011;60902;53.876;10.674;2022-10-18T00:48:49;5.90;;;3.10;;
72785;SDS011;60902;53.876;10.674;2022-10-18T00:49:03;5.60;;;3.00;;
72785;SDS011;60902;53.876;10.674;2022-10-18T00:49:17;5.45;;;2.85;;
72785;SDS011;60902;53.876;10.674;2022-10-18T00:49:31;5.45;;;2.92;;
72785;SDS011;60902;53.876;10.674;2022-10-18T00:49:44;5.13;;;2.90;;
72785;SDS011;60902;53.876;10.674;2022-10-18T00:50:00;5.38;;;2.90;;
72785;SDS011;60902;53.876;10.674;2022-10-18T00:50:14;5.30;;;2.92;;
72785;SDS011;60902;53.876;10.674;2022-10-18T00:50:26;5.05;;;2.95;;
72785;SDS011;60902;53.876;10.674;2022-10-18T00:50:40;5.47;;;2.97;;
72785;SDS011;60902;53.876;10.674;2022-10-18T00:50:52;5.35;;;2.80;;
72785;SDS011;60902;53.876;10.674;2022-10-18T00:51:04;5.10;;;2.78;;
72785;SDS011;60902;53.876;10.674;2022-10-18T00:51:15;5.25;;;2.85;;
72785;SDS011;60902;53.876;10.674;2022-10-18T00:51:28;5.40;;;3.08;;
72785;SDS011;60902;53.876;10.674;2022-10-18T00:51:45;5.68;;;3.10;;
72785;SDS011;60902;53.876;10.674;2022-10-18T00:52:03;5.55;;;2.83;;
72785;SDS011;60902;53.876;10.674;2022-10-18T00:52:18;5.25;;;2.90;;
72785;SDS011;60902;53.876;10.674;2022-10-18T00:52:32;5.75;;;3.03;;
72785;SDS011;60902;53.876;10.674;2022-10-18T00:52:46;6.00;;;2.90;;
72785;SDS011;60902;53.876;10.674;2022-10-18T00:53:02;5.50;;;2.90;;
72785;SDS011;60902;53.876;10.674;2022-10-18T00:53:18;5.10;;;2.80;;
72785;SDS011;60902;53.876;10.674;2022-10-18T00:53:31;5.40;;;2.70;;
72785;SDS011;60902;53.876;10.674;2022-10-18T00:53:42;5.55;;;2.78;;
72785;SDS011;60902;53.876;10.674;2022-10-18T00:53:53;5.68;;;2.80;;
72785;SDS011;60902;53.876;10.674;2022-10-18T00:54:04;5.32;;;2.90;;
72785;SDS011;60902;53.876;10.674;2022-10-18T00:54:15;5.85;;;3.00;;
72785;SDS011;60902;53.876;10.674;2022-10-18T00:54:28;5.88;;;2.88;;
72785;SDS011;60902;53.876;10.674;2022-10-18T00:54:43;5.80;;;2.92;;
72785;SDS011;60902;53.876;10.674;2022-10-18T00:54:55;5.28;;;2.65;;
72785;SDS011;60902;53.876;10.674;2022-10-18T00:55:07;5.70;;;2.80;;
72785;SDS011;60902;53.876;10.674;2022-10-18T00:55:19;6.23;;;2.93;;
72785;SDS011;60902;53.876;10.674;2022-10-18T00:55:31;6.10;;;3.20;;
72785;SDS011;60902;53.876;10.674;2022-10-18T00:55:43;6.28;;;3.15;;
72785;SDS011;60902;53.876;10.674;2022-10-18T00:55:56;5.63;;;2.80;;
72785;SDS011;60902;53.876;10.674;2022-10-18T00:56:06;5.05;;;2.63;;
72785;SDS011;60902;53.876;10.674;2022-10-18T00:56:17;4.85;;;2.70;;
72785;SDS011;60902;53.876;10.674;2022-10-18T00:56:29;5.18;;;2.97;;
72785;SDS011;60902;53.876;10.674;2022-10-18T00:56:41;5.50;;;3.10;;
72785;SDS011;60902;53.876;10.674;2022-10-18T00:56:54;6.03;;;3.33;;
72785;SDS011;60902;53.876;10.674;2022-10-18T00:57:05;5.72;;;3.20;;
72785;SDS011;60902;53.876;10.674;2022-10-18T00:57:17;5.50;;;3.13;;
72785;SDS011;60902;53.876;10.674;2022-10-18T00:57:28;5.63;;;3.10;;
72785;SDS011;60902;53.876;10.674;2022-10-18T00:57:40;5.85;;;3.17;;
72785;SDS011;60902;53.876;10.674;2022-10-18T00:57:53;5.50;;;3.10;;
72785;SDS011;60902;53.876;10.674;2022-10-18T00:58:05;5.57;;;3.25;;
72785;SDS011;60902;53.876;10.674;2022-10-18T00:58:17;5.63;;;3.10;;
72785;SDS011;60902;53.876;10.674;2022-10-18T00:58:29;6.22;;;3.05;;
72785;SDS011;60902;53.876;10.674;2022-10-18T00:58:42;6.00;;;2.88;;
72785;SDS011;60902;53.876;10.674;2022-10-18T00:58:55;5.60;;;2.75;;
72785;SDS011;60902;53.876;10.674;2022-10-18T00:59:07;5.30;;;2.83;;
72785;SDS011;60902;53.876;10.674;2022-10-18T00:59:19;5.00;;;2.92;;
72785;SDS011;60902;53.876;10.674;2022-10-18T00:59:31;5.18;;;3.08;;
72785;SDS011;60902;53.876;10.674;2022-10-18T00:59:43;5.75;;;3.20;;
72785;SDS011;60902;53.876;10.674;2022-10-18T00:59:55;5.90;;;3.22;;
72785;SDS011;60902;53.876;10.674;2022-10-18T01:00:06;5.22;;;3.10;;
72785;SDS011;60902;53.876;10.674;2022-10-18T01:00:19;5.00;;;2.92;;
72785;SDS011;60902;53.876;10.674;2022-10-18T01:00:30;4.97;;;2.92;;
72785;SDS011;60902;53.876;10.674;2022-10-18T01:00:43;5.18;;;2.85;;
72785;SDS011;60902;53.876;10.674;2022-10-18T01:00:54;5.38;;;3.13;;
72785;SDS011;60902;53.876;10.674;2022-10-18T01:01:06;5.40;;;3.30;;
72785;SDS011;60902;53.876;10.674;2022-10-18T01:01:17;5.55;;;3.20;;
72785;SDS011;60902;53.876;10.674;2022-10-18T01:01:28;5.63;;;2.93;;
72785;SDS011;60902;53.876;10.674;2022-10-18T01:01:40;5.75;;;2.90;;
72785;SDS011;60902;53.876;10.674;2022-10-18T01:01:51;5.50;;;3.00;;
72785;SDS011;60902;53.876;10.674;2022-10-18T01:02:02;5.95;;;3.28;;
72785;SDS011;60902;53.876;10.674;2022-10-18T01:02:15;6.10;;;3.30;;
72785;SDS011;60902;53.876;10.674;2022-10-18T01:02:27;5.78;;;3.10;;
72785;SDS011;60902;53.876;10.674;2022-10-18T01:02:39;5.30;;;2.90;;
72785;SDS011;60902;53.876;10.674;2022-10-18T01:02:51;4.95;;;2.75;;
72785;SDS011;60902;53.876;10.674;2022-10-18T01:03:03;5.00;;;2.80;;
72785;SDS011;60902;53.876;10.674;2022-10-18T01:03:14;4.97;;;2.90;;
72785;SDS011;60902;53.876;10.674;2022-10-18T01:03:25;5.20;;;2.90;;
72785;SDS011;60902;53.876;10.674;2022-10-18T01:03:36;5.35;;;2.88;;
72785;SDS011;60902;53.876;10.674;2022-10-18T01:03:49;5.53;;;3.00;;
72785;SDS011;60902;53.876;10.674;2022-10-18T01:04:01;5.57;;;3.15;;
72785;SDS011;60902;53.876;10.674;2022-10-18T01:04:12;5.45;;;3.08;;
72785;SDS011;60902;53.876;10.674;2022-10-18T01:04:24;5.10;;;2.90;;
72785;SDS011;60902;53.876;10.674;2022-10-18T01:04:36;4.90;;;2.60;;
72785;SDS011;60902;53.876;10.674;2022-10-18T01:04:47;5.55;;;2.88;;
72785;SDS011;60902;53.876;10.674;2022-10-18T01:04:58;6.20;;;3.30;;
72785;SDS011;60902;53.876;10.674;2022-10-18T01:05:10;6.10;;;3.20;;
72785;SDS011;60902;53.876;10.674;2022-10-18T01:05:22;5.43;;;2.72;;
72785;SDS011;60902;53.876;10.674;2022-10-18T01:05:34;5.03;;;2.78;;
72785;SDS011;60902;53.876;10.674;2022-10-18T01:05:50;5.28;;;2.72;;
72785;SDS011;60902;53.876;10.674;2022-10-18T01:06:01;6.07;;;3.10;;
72785;SDS011;60902;53.876;10.674;2022-10-18T01:06:12;6.22;;;3.47;;
72785;SDS011;60902;53.876;10.674;2022-10-18T01:06:23;5.90;;;3.33;;
72785;SDS011;60902;53.876;10.674;2022-10-18T01:06:39;5.30;;;2.85;;
72785;SDS011;60902;53.876;10.674;2022-10-18T01:07:00;5.00;;;2.78;;
72785;SDS011;60902;53.876;10.674;2022-10-18T01:07:22;5.10;;;2.72;;
72785;SDS011;60902;53.876;10.674;2022-10-18T01:07:50;5.30;;;3.00;;
72785;SDS011;60902;53.876;10.674;2022-10-18T01:08:34;5.65;;;3.15;;
72785;SDS011;60902;53.876;10.674;2022-10-18T01:08:58;5.97;;;3.20;;
72785;SDS011;60902;53.876;10.674;2022-10-18T01:09:22;5.68;;;3.15;;
72785;SDS011;60902;53.876;10.674;2022-10-18T01:09:43;5.38;;;3.08;;
72785;SDS011;60902;53.876;10.674;2022-10-18T01:10:00;6.03;;;3.40;;
72785;SDS011;60902;53.876;10.674;2022-10-18T01:10:23;5.85;;;3.33;;
72785;SDS011;60902;53.876;10.674;2022-10-18T01:10:41;5.32;;;3.20;;
72785;SDS011;60902;53.876;10.674;2022-10-18T01:11:01;6.00;;;3.20;;
72785;SDS011;60902;53.876;10.674;2022-10-18T01:11:32;5.82;;;3.08;;
72785;SDS011;60902;53.876;10.674;2022-10-18T01:12:07;5.80;;;2.97;;
72785;SDS011;60902;53.876;10.674;2022-10-18T01:12:29;5.97;;;3.40;;
72785;SDS011;60902;53.876;10.674;2022-10-18T01:13:00;5.50;;;3.22;;
72785;SDS011;60902;53.876;10.674;2022-10-18T01:13:29;5.72;;;3.10;;
72785;SDS011;60902;53.876;10.674;2022-10-18T01:13:50;6.05;;;3.42;;
72785;SDS011;60902;53.876;10.674;2022-10-18T01:14:14;5.70;;;3.25;;
72785;SDS011;60902;53.876;10.674;2022-10-18T01:14:38;5.97;;;3.38;;
72785;SDS011;60902;53.876;10.674;2022-10-18T01:14:57;6.28;;;3.42;;
72785;SDS011;60902;53.876;10.674;2022-10-18T01:15:14;7.30;;;3.57;;
72785;SDS011;60902;53.876;10.674;2022-10-18T01:15:33;6.15;;;3.30;;
72785;SDS011;60902;53.876;10.674;2022-10-18T01:15:56;7.03;;;3.60;;
72785;SDS011;60902;53.876;10.674;2022-10-18T01:16:11;6.80;;;3.53;;
72785;SDS011;60902;53.876;10.674;2022-10-18T01:16:29;5.80;;;3.65;;
72785;SDS011;60902;53.876;10.674;2022-10-18T01:16:48;5.95;;;3.47;;
72785;SDS011;60902;53.876;10.674;2022-10-18T01:17:10;6.32;;;3.35;;
72785;SDS011;60902;53.876;10.674;2022-10-18T01:17:28;6.78;;;3.38;;
72785;SDS011;60902;53.876;10.674;2022-10-18T01:17:54;6.20;;;3.17;;